createdAt,value
2023-08-07T00:07:40.612Z,1011.3
2023-08-07T00:17:43.364Z,1011.3
2023-08-07T00:27:40.071Z,1011.3
2023-08-07T00:37:40.206Z,1011.3
2023-08-07T00:47:40.833Z,1011.4
2023-08-07T00:57:40.156Z,1011.4
2023-08-07T01:07:40.138Z,1011.5
2023-08-07T01:17:42.810Z,1011.4
2023-08-07T01:27:40.249Z,1011.5
2023-08-07T01:37:40.244Z,1011.7
2023-08-07T01:47:40.217Z,1011.7
2023-08-07T01:57:40.190Z,1011.8
2023-08-07T02:07:40.982Z,1011.9
2023-08-07T02:17:40.721Z,1011.9
2023-08-07T02:27:40.621Z,1012.0
2023-08-07T02:37:40.982Z,1012.0
2023-08-07T02:47:40.452Z,1011.9
2023-08-07T02:57:40.176Z,1011.9
2023-08-07T03:07:41.103Z,1011.8
2023-08-07T03:17:40.635Z,1011.8
2023-08-07T03:27:40.299Z,1011.7
2023-08-07T03:37:43.230Z,1011.6
2023-08-07T03:47:40.281Z,1011.6
2023-08-07T03:57:40.300Z,1011.6
2023-08-07T04:07:40.554Z,1011.6
2023-08-07T04:17:40.392Z,1011.7
2023-08-07T04:27:40.760Z,1011.8
2023-08-07T04:37:41.475Z,1011.8
2023-08-07T04:47:40.284Z,1012.0
2023-08-07T04:57:40.395Z,1012.1
2023-08-07T05:07:40.312Z,1012.1
2023-08-07T05:17:40.343Z,1012.3
2023-08-07T05:27:40.487Z,1012.4
2023-08-07T05:37:40.235Z,1012.5
2023-08-07T05:47:40.413Z,1012.6
2023-08-07T05:57:40.175Z,1012.8
2023-08-07T06:07:40.217Z,1012.8
2023-08-07T06:17:40.781Z,1013.0
2023-08-07T06:27:40.765Z,1013.2
2023-08-07T06:37:40.221Z,1013.3
2023-08-07T06:47:40.301Z,1013.4
2023-08-07T06:57:40.218Z,1013.5
2023-08-07T07:07:41.256Z,1013.7
2023-08-07T07:17:40.417Z,1013.7
2023-08-07T07:27:40.321Z,1014.0
2023-08-07T07:37:40.256Z,1014.1
2023-08-07T07:47:40.325Z,1014.1
2023-08-07T07:57:40.365Z,1014.2
2023-08-07T08:07:40.369Z,1014.3
2023-08-07T08:17:40.719Z,1014.3
2023-08-07T08:27:40.822Z,1014.4
2023-08-07T08:37:40.279Z,1014.5
2023-08-07T08:47:40.514Z,1014.6
2023-08-07T08:57:42.054Z,1014.7
2023-08-07T09:07:40.922Z,1014.8
2023-08-07T09:17:40.622Z,1014.8
2023-08-07T09:27:40.634Z,1015.1
2023-08-07T09:37:40.417Z,1015.2
2023-08-07T09:47:40.645Z,1015.1
2023-08-07T09:57:40.872Z,1015.2
2023-08-07T10:07:40.714Z,1015.4
2023-08-07T10:17:41.038Z,1015.4
2023-08-07T10:27:40.868Z,1015.4
2023-08-07T10:37:40.770Z,1015.6
2023-08-07T10:47:40.871Z,1015.5
2023-08-07T10:57:40.683Z,1015.7
2023-08-07T11:07:40.614Z,1015.8
2023-08-07T11:17:41.704Z,1015.9
2023-08-07T11:27:41.278Z,1015.8
2023-08-07T11:37:40.864Z,1015.8
2023-08-07T11:47:40.669Z,1015.8
2023-08-07T11:57:40.594Z,1015.9
2023-08-07T12:07:42.236Z,1015.8
2023-08-07T12:17:40.665Z,1015.9
2023-08-07T12:27:40.694Z,1016.0
2023-08-07T12:37:40.587Z,1016.0
2023-08-07T12:47:40.827Z,1016.0
2023-08-07T12:57:40.626Z,1016.0
2023-08-07T13:07:40.821Z,1016.2
2023-08-07T13:17:40.651Z,1016.2
2023-08-07T13:27:40.796Z,1016.2
2023-08-07T13:37:40.694Z,1016.0
2023-08-07T13:47:40.924Z,1016.1
2023-08-07T13:57:41.007Z,1016.1
2023-08-07T14:07:43.853Z,1016.3
2023-08-07T14:17:42.038Z,1016.4
2023-08-07T14:27:41.118Z,1016.4
2023-08-07T14:37:40.809Z,1016.5
2023-08-07T14:47:41.999Z,1016.6
2023-08-07T14:57:41.162Z,1016.6
2023-08-07T15:07:41.724Z,1016.8
2023-08-07T15:17:40.889Z,1016.8
2023-08-07T15:27:41.181Z,1016.8
2023-08-07T15:37:41.221Z,1016.8
2023-08-07T15:47:41.170Z,1016.9
2023-08-07T15:57:41.327Z,1016.8
2023-08-07T16:07:41.037Z,1016.9
2023-08-07T16:17:41.576Z,1016.9
2023-08-07T16:27:40.991Z,1016.9
2023-08-07T16:37:41.206Z,1016.9
2023-08-07T16:47:41.407Z,1016.9
2023-08-07T16:57:41.347Z,1016.9
2023-08-07T17:07:42.654Z,1016.8
2023-08-07T17:17:41.223Z,1016.8
2023-08-07T17:27:41.783Z,1016.7
2023-08-07T17:37:41.120Z,1016.6
2023-08-07T17:47:41.628Z,1016.6
2023-08-07T17:57:41.053Z,1016.6
2023-08-07T18:07:42.560Z,1016.4
2023-08-07T18:17:41.325Z,1016.4
2023-08-07T18:27:41.222Z,1016.4
2023-08-07T18:37:41.303Z,1016.3
2023-08-07T18:47:41.177Z,1016.3
2023-08-07T18:57:41.261Z,1016.3
2023-08-07T19:07:41.449Z,1016.2
2023-08-07T19:17:42.661Z,1016.2
2023-08-07T19:27:41.394Z,1016.2
2023-08-07T19:37:42.051Z,1016.3
2023-08-07T19:47:41.712Z,1016.3
2023-08-07T19:57:41.659Z,1016.3
2023-08-07T20:07:41.814Z,1016.3
2023-08-07T20:17:41.670Z,1016.1
2023-08-07T20:27:41.641Z,1016.1
2023-08-07T20:37:41.820Z,1016.0
2023-08-07T20:47:41.873Z,1015.9
2023-08-07T20:57:41.765Z,1015.9
2023-08-07T21:07:42.050Z,1015.8
2023-08-07T21:17:41.748Z,1015.7
2023-08-07T21:27:41.708Z,1015.6
2023-08-07T21:37:42.110Z,1015.5
2023-08-07T21:47:42.334Z,1015.5
2023-08-07T21:57:41.884Z,1015.3
2023-08-07T22:07:42.584Z,1015.1
2023-08-07T22:17:43.512Z,1015.2
2023-08-07T22:27:41.865Z,1015.0
2023-08-07T22:37:42.296Z,1015.1
2023-08-07T22:47:42.323Z,1015.0
2023-08-07T22:57:42.041Z,1014.9
2023-08-07T23:07:48.870Z,1014.9
2023-08-07T23:17:45.805Z,1014.7
2023-08-07T23:27:42.722Z,1014.6
2023-08-07T23:37:45.544Z,1014.7
2023-08-07T23:47:45.126Z,1014.5
2023-08-07T23:57:42.973Z,1014.4
